createdAt,value
2022-09-25T00:02:11.513Z,99767.22
2022-09-25T00:04:59.986Z,99758.41
2022-09-25T00:07:48.815Z,99754.09
2022-09-25T00:10:42.613Z,99763.56
2022-09-25T00:13:31.105Z,99756.88
2022-09-25T00:16:21.836Z,99742.25
2022-09-25T00:19:29.455Z,99759.81
2022-09-25T00:22:17.982Z,99734.38
2022-09-25T00:25:07.004Z,99746.69
2022-09-25T00:27:56.835Z,99747.75
2022-09-25T00:30:45.448Z,99746.94
2022-09-25T00:33:34.140Z,99736.16
2022-09-25T00:36:22.580Z,99741.06
2022-09-25T00:39:11.074Z,99737.31
2022-09-25T00:41:59.673Z,99742.72
2022-09-25T00:44:57.905Z,99729.59
2022-09-25T00:47:51.399Z,99733.00
2022-09-25T00:50:43.431Z,99728.19
2022-09-25T00:53:33.740Z,99716.44
2022-09-25T00:56:22.321Z,99718.56
2022-09-25T00:59:13.855Z,99723.97
2022-09-25T01:02:03.727Z,99719.03
2022-09-25T01:04:52.719Z,99716.69
2022-09-25T01:07:43.251Z,99717.75
2022-09-25T01:10:31.692Z,99719.38
2022-09-25T01:13:20.507Z,99717.50
2022-09-25T01:16:15.340Z,99727.81
2022-09-25T01:19:16.485Z,99724.53
2022-09-25T01:22:10.975Z,99715.28
2022-09-25T01:25:11.945Z,99700.16
2022-09-25T01:28:19.232Z,99719.97
2022-09-25T01:31:14.496Z,99710.25
2022-09-25T01:34:07.615Z,99716.44
2022-09-25T01:37:00.714Z,99706.63
2022-09-25T01:39:56.644Z,99719.63
2022-09-25T01:42:49.500Z,99721.03
2022-09-25T01:45:42.601Z,99711.19
2022-09-25T01:48:33.570Z,99721.59
2022-09-25T01:51:25.473Z,99724.06
2022-09-25T01:54:16.869Z,99719.13
2022-09-25T01:57:09.377Z,99725.59
2022-09-25T02:00:02.677Z,99718.56
2022-09-25T02:02:55.633Z,99714.25
2022-09-25T02:05:48.588Z,99713.41
2022-09-25T02:08:40.149Z,99712.13
2022-09-25T02:11:32.647Z,99718.56
2022-09-25T02:14:23.400Z,99716.34
2022-09-25T02:17:34.351Z,99714.94
2022-09-25T02:20:32.736Z,99708.72
2022-09-25T02:23:26.291Z,99706.63
2022-09-25T02:26:18.716Z,99709.09
2022-09-25T02:29:08.071Z,99714.13
2022-09-25T02:31:59.596Z,99680.84
2022-09-25T02:34:48.386Z,99707.91
2022-09-25T02:37:36.861Z,99711.19
2022-09-25T02:40:32.601Z,99708.50
2022-09-25T02:43:27.874Z,99569.19
2022-09-25T02:46:25.088Z,99712.03
2022-09-25T02:49:20.834Z,99694.78
2022-09-25T02:52:13.292Z,99710.34
2022-09-25T02:55:06.696Z,99702.25
2022-09-25T02:57:58.133Z,99576.59
2022-09-25T03:00:50.057Z,99707.66
2022-09-25T03:03:39.322Z,99704.41
2022-09-25T03:06:28.401Z,99701.09
2022-09-25T03:09:18.687Z,99692.56
2022-09-25T03:12:07.248Z,99692.19
2022-09-25T03:14:57.034Z,99698.19
2022-09-25T03:17:46.408Z,99701.22
2022-09-25T03:20:34.902Z,99693.16
2022-09-25T03:23:23.373Z,99695.25
2022-09-25T03:26:11.932Z,99693.94
2022-09-25T03:29:02.450Z,99698.88
2022-09-25T03:31:52.409Z,99684.94
2022-09-25T03:34:40.898Z,99690.78
2022-09-25T03:37:29.908Z,99705.88
2022-09-25T03:40:18.592Z,99695.38
2022-09-25T03:45:54.597Z,99692.69
2022-09-25T03:48:44.437Z,99694.31
2022-09-25T03:51:33.531Z,99697.81
2022-09-25T03:54:21.981Z,99693.47
2022-09-25T03:57:12.380Z,99695.94
2022-09-25T04:00:02.242Z,99698.63
2022-09-25T04:02:51.050Z,99701.31
2022-09-25T04:05:42.111Z,99695.09
2022-09-25T04:08:31.260Z,99698.06
2022-09-25T04:11:21.460Z,99693.25
2022-09-25T04:14:10.448Z,99696.16
2022-09-25T04:16:58.941Z,99695.59
2022-09-25T04:19:47.979Z,99706.72
2022-09-25T04:22:37.734Z,99689.72
2022-09-25T04:25:26.372Z,99687.28
2022-09-25T04:28:14.817Z,99691.84
2022-09-25T04:31:04.042Z,99661.50
2022-09-25T04:33:51.636Z,99702.16
2022-09-25T04:36:41.350Z,99697.22
2022-09-25T04:39:31.148Z,99696.41
2022-09-25T04:42:24.546Z,99666.31
2022-09-25T04:45:13.078Z,99687.28
2022-09-25T04:48:02.458Z,99695.94
2022-09-25T04:50:51.652Z,99691.59
2022-09-25T04:53:40.615Z,99697.22
2022-09-25T04:56:30.583Z,99704.84
2022-09-25T04:59:19.051Z,99701.56
2022-09-25T05:02:07.564Z,99665.47
2022-09-25T05:04:56.095Z,99706.63
2022-09-25T05:07:52.350Z,99710.34
2022-09-25T05:10:41.072Z,99711.78
2022-09-25T05:13:30.848Z,99695.59
2022-09-25T05:16:19.518Z,99710.03
2022-09-25T05:19:08.150Z,99702.16
2022-09-25T05:21:56.589Z,99703.69
2022-09-25T05:24:45.029Z,99718.09
2022-09-25T05:27:34.113Z,99710.94
2022-09-25T05:30:24.123Z,99707.91
2022-09-25T05:33:12.669Z,99709.91
2022-09-25T05:36:04.965Z,99711.06
2022-09-25T05:38:53.992Z,99706.13
2022-09-25T05:41:42.541Z,99713.06
2022-09-25T05:44:31.118Z,99710.72
2022-09-25T05:47:20.903Z,99716.22
2022-09-25T05:50:10.939Z,99696.53
2022-09-25T05:52:59.516Z,99715.53
2022-09-25T05:55:51.489Z,99713.41
2022-09-25T05:58:39.939Z,99714.22
2022-09-25T06:01:28.454Z,99718.31
2022-09-25T06:04:18.362Z,99717.75
2022-09-25T06:07:06.802Z,99725.25
2022-09-25T06:09:55.268Z,99713.53
2022-09-25T06:12:43.717Z,99717.84
2022-09-25T06:15:36.043Z,99719.25
2022-09-25T06:18:25.896Z,99726.63
2022-09-25T06:21:15.726Z,99722.06
2022-09-25T06:24:04.390Z,99726.63
2022-09-25T06:26:52.890Z,99727.47
2022-09-25T06:29:41.316Z,99727.94
2022-09-25T06:32:29.767Z,99729.78
2022-09-25T06:35:18.237Z,99732.03
2022-09-25T06:38:08.033Z,99736.72
2022-09-25T06:40:59.826Z,99734.47
2022-09-25T06:43:49.773Z,99733.31
2022-09-25T06:46:38.246Z,99740.34
2022-09-25T06:49:26.748Z,99737.06
2022-09-25T06:52:15.164Z,99745.72
2022-09-25T06:55:05.512Z,99735.69
2022-09-25T06:57:54.021Z,99733.78
2022-09-25T07:00:42.745Z,99740.34
2022-09-25T07:03:47.811Z,99740.09
2022-09-25T07:06:37.319Z,99736.47
2022-09-25T07:09:25.793Z,99740.00
2022-09-25T07:12:15.592Z,99735.44
2022-09-25T07:15:04.129Z,99735.09
2022-09-25T07:17:52.584Z,99735.44
2022-09-25T07:20:41.007Z,99731.56
2022-09-25T07:23:31.109Z,99757.34
2022-09-25T07:26:22.140Z,99743.31
2022-09-25T07:29:12.629Z,99750.94
2022-09-25T07:32:01.112Z,99750.94
2022-09-25T07:34:51.120Z,99744.56
2022-09-25T07:37:39.669Z,99740.63
2022-09-25T07:40:28.917Z,99748.69
2022-09-25T07:43:17.436Z,99741.31
2022-09-25T07:46:07.724Z,99749.50
2022-09-25T07:48:56.187Z,99744.94
2022-09-25T07:51:44.676Z,99717.84
2022-09-25T07:54:34.581Z,99743.78
2022-09-25T07:57:27.811Z,99739.53
2022-09-25T08:00:17.351Z,99737.69
2022-09-25T08:03:16.090Z,99739.31
2022-09-25T08:09:32.713Z,99727.81
2022-09-25T08:12:46.642Z,99738.72
2022-09-25T08:15:58.434Z,99735.44
2022-09-25T08:29:38.453Z,99740.38
2022-09-25T08:32:44.165Z,99737.06
2022-09-25T08:35:37.345Z,99716.09
2022-09-25T08:38:52.643Z,99749.16
2022-09-25T08:41:48.016Z,99730.16
2022-09-25T08:44:56.980Z,99744.84
2022-09-25T08:48:19.574Z,99762.19
2022-09-25T08:51:39.166Z,99741.56
2022-09-25T08:54:45.711Z,99726.53
2022-09-25T08:57:40.180Z,99615.91
2022-09-25T09:00:29.300Z,99754.88
2022-09-25T09:03:18.831Z,99747.84
2022-09-25T09:06:13.313Z,99737.75
2022-09-25T09:09:07.022Z,99731.91
2022-09-25T09:11:59.661Z,99734.59
2022-09-25T09:14:50.351Z,99741.03
2022-09-25T09:17:42.527Z,99729.25
2022-09-25T09:20:38.516Z,99745.88
2022-09-25T09:23:39.048Z,99751.63
2022-09-25T09:26:35.255Z,99768.63
2022-09-25T09:29:37.239Z,99748.34
2022-09-25T09:32:46.351Z,99752.69
2022-09-25T09:35:39.963Z,99752.06
2022-09-25T09:38:39.390Z,99757.81
2022-09-25T09:41:35.091Z,99750.88
2022-09-25T09:44:37.108Z,99753.81
2022-09-25T09:47:41.036Z,99714.91
2022-09-25T09:50:43.218Z,99748.50
2022-09-25T09:53:39.780Z,99745.13
2022-09-25T09:56:32.123Z,99719.97
2022-09-25T09:59:23.667Z,99750.56
2022-09-25T10:02:19.703Z,99747.94
2022-09-25T10:05:19.764Z,99747.63
2022-09-25T10:08:10.136Z,99747.75
2022-09-25T10:11:00.147Z,99657.38
2022-09-25T10:13:48.876Z,99728.03
2022-09-25T10:16:37.862Z,99752.31
2022-09-25T10:19:27.797Z,99755.38
2022-09-25T10:22:17.859Z,99752.09
2022-09-25T10:25:07.463Z,99744.22
2022-09-25T10:27:57.841Z,99719.38
2022-09-25T10:30:47.146Z,99745.06
2022-09-25T10:33:35.670Z,99744.47
2022-09-25T10:36:32.301Z,99747.53
2022-09-25T10:39:44.026Z,99742.22
2022-09-25T10:42:39.064Z,99704.63
2022-09-25T10:45:33.988Z,99736.50
2022-09-25T10:48:45.317Z,99734.13
2022-09-25T10:51:33.785Z,99735.81
2022-09-25T10:54:22.363Z,99736.75
2022-09-25T10:57:18.098Z,99737.44
2022-09-25T11:00:20.432Z,99736.34
2022-09-25T11:03:21.416Z,99736.81
2022-09-25T11:06:20.871Z,99739.13
2022-09-25T11:09:14.758Z,99749.78
2022-09-25T11:12:13.420Z,99733.00
2022-09-25T11:15:03.274Z,99722.34
2022-09-25T11:17:53.793Z,99739.91
2022-09-25T11:20:43.667Z,99758.75
2022-09-25T11:23:35.806Z,99754.53
2022-09-25T11:26:29.959Z,99741.75
2022-09-25T11:29:24.411Z,99750.63
2022-09-25T11:32:20.990Z,99741.22
2022-09-25T11:35:37.381Z,99744.00
2022-09-25T11:38:51.062Z,99720.75
2022-09-25T11:41:43.747Z,99740.88
2022-09-25T11:44:37.593Z,99742.91
2022-09-25T11:47:29.585Z,99738.75
2022-09-25T11:50:19.382Z,99696.41
2022-09-25T11:53:15.065Z,99749.50
2022-09-25T11:56:13.222Z,99740.09
2022-09-25T11:59:23.779Z,99743.69
2022-09-25T12:02:20.969Z,99741.22
2022-09-25T12:05:22.734Z,99746.88
2022-09-25T12:08:19.462Z,99700.94
2022-09-25T12:11:18.059Z,99737.41
2022-09-25T12:14:14.063Z,99742.72
2022-09-25T12:17:07.197Z,99734.88
2022-09-25T12:20:00.924Z,99738.38
2022-09-25T12:22:57.067Z,99736.75
2022-09-25T12:25:53.812Z,99729.63
2022-09-25T12:28:56.138Z,99741.41
2022-09-25T12:31:52.502Z,99735.50
2022-09-25T12:35:07.503Z,99728.38
2022-09-25T12:37:58.406Z,99717.16
2022-09-25T12:40:50.134Z,99728.88
2022-09-25T12:43:45.980Z,99727.16
2022-09-25T12:46:43.214Z,99720.38
2022-09-25T12:49:34.516Z,99704.06
2022-09-25T12:52:26.510Z,99705.72
2022-09-25T12:55:19.210Z,99705.13
2022-09-25T12:58:18.173Z,99693.19
2022-09-25T13:01:12.496Z,99687.69
2022-09-25T13:04:10.798Z,99708.47
2022-09-25T13:07:05.886Z,99697.00
2022-09-25T13:09:54.391Z,99707.50
2022-09-25T13:12:42.960Z,99685.06
2022-09-25T13:15:33.473Z,99706.66
2022-09-25T13:18:23.325Z,99702.16
2022-09-25T13:21:27.518Z,99704.53
2022-09-25T13:24:17.679Z,99701.88
2022-09-25T13:27:06.796Z,99710.94
2022-09-25T13:29:57.992Z,99709.47
2022-09-25T13:32:50.258Z,99708.56
2022-09-25T13:35:38.780Z,99708.25
2022-09-25T13:38:42.477Z,99703.16
2022-09-25T13:41:31.121Z,99694.34
2022-09-25T13:44:54.104Z,99710.94
2022-09-25T13:47:55.029Z,99708.75
2022-09-25T13:50:45.246Z,99710.91
2022-09-25T13:53:53.297Z,99711.94
2022-09-25T13:56:55.021Z,99718.28
2022-09-25T13:59:43.492Z,99704.28
2022-09-25T14:02:46.310Z,99713.78
2022-09-25T14:05:36.921Z,99709.38
2022-09-25T14:08:25.500Z,99707.19
2022-09-25T14:11:18.697Z,99709.06
2022-09-25T14:14:09.935Z,99706.47
2022-09-25T14:16:59.778Z,99701.72
2022-09-25T14:19:50.646Z,99689.53
2022-09-25T14:22:44.446Z,99693.13
2022-09-25T14:25:36.344Z,99675.13
2022-09-25T14:28:28.060Z,99691.88
2022-09-25T14:31:27.358Z,99700.16
2022-09-25T14:34:54.226Z,99693.63
2022-09-25T14:37:56.596Z,99693.22
2022-09-25T14:40:55.017Z,99691.59
2022-09-25T14:43:55.126Z,99691.75
2022-09-25T14:46:44.105Z,99693.13
2022-09-25T14:49:37.635Z,99686.03
2022-09-25T14:52:28.641Z,99695.53
2022-09-25T14:55:20.473Z,99548.50
2022-09-25T14:58:10.151Z,99693.47
2022-09-25T15:01:05.396Z,99689.88
2022-09-25T15:03:55.438Z,99700.63
2022-09-25T15:06:44.603Z,99697.59
2022-09-25T15:09:37.574Z,99696.94
2022-09-25T15:12:29.204Z,99709.94
2022-09-25T15:15:18.579Z,99675.16
2022-09-25T15:18:09.864Z,99693.25
2022-09-25T15:20:58.622Z,99701.19
2022-09-25T15:23:47.464Z,99693.53
2022-09-25T15:26:41.997Z,99641.84
2022-09-25T15:29:33.699Z,99693.78
2022-09-25T15:32:25.937Z,99703.59
2022-09-25T15:35:19.852Z,99582.41
2022-09-25T15:38:12.546Z,99701.66
2022-09-25T15:41:01.461Z,99701.72
2022-09-25T15:43:51.169Z,99699.66
2022-09-25T15:46:40.875Z,99678.44
2022-09-25T15:49:32.967Z,99697.44
2022-09-25T15:52:25.212Z,99696.41
2022-09-25T15:55:15.026Z,99702.78
2022-09-25T15:58:08.866Z,99655.84
2022-09-25T16:01:18.255Z,99708.28
2022-09-25T16:04:26.138Z,99718.38
2022-09-25T16:07:28.898Z,99718.63
2022-09-25T16:10:30.958Z,99716.19
2022-09-25T16:13:20.800Z,99716.94
2022-09-25T16:16:19.306Z,99721.25
2022-09-25T16:19:25.739Z,99717.94
2022-09-25T16:22:23.337Z,99725.59
2022-09-25T16:25:22.017Z,99691.84
2022-09-25T16:28:16.749Z,99696.88
2022-09-25T16:31:07.059Z,99721.13
2022-09-25T16:33:57.478Z,99727.22
2022-09-25T16:36:48.470Z,99730.88
2022-09-25T16:39:38.477Z,99721.75
2022-09-25T16:42:35.622Z,99722.69
2022-09-25T16:45:27.575Z,99743.53
2022-09-25T16:48:30.503Z,99736.03
2022-09-25T16:51:22.470Z,99737.56
2022-09-25T16:54:11.233Z,99734.53
2022-09-25T16:56:59.980Z,99735.31
2022-09-25T16:59:50.200Z,99737.44
2022-09-25T17:02:41.827Z,99734.75
2022-09-25T17:05:32.026Z,99613.00
2022-09-25T17:08:23.847Z,99703.81
2022-09-25T17:11:13.026Z,99693.00
2022-09-25T17:14:01.672Z,99723.72
2022-09-25T17:16:52.334Z,99744.22
2022-09-25T17:19:40.814Z,99735.19
2022-09-25T17:22:31.056Z,99746.94
2022-09-25T17:25:30.681Z,99744.09
2022-09-25T17:28:19.192Z,99748.78
2022-09-25T17:31:07.789Z,99701.53
2022-09-25T17:33:57.701Z,99756.25
2022-09-25T17:36:46.697Z,99740.44
2022-09-25T17:39:35.193Z,99763.41
2022-09-25T17:42:26.594Z,99746.06
2022-09-25T17:45:24.838Z,99751.78
2022-09-25T17:48:13.362Z,99760.72
2022-09-25T17:51:04.832Z,99773.81
2022-09-25T17:53:53.841Z,99767.84
2022-09-25T17:56:45.036Z,99762.31
2022-09-25T17:59:33.531Z,99776.41
2022-09-25T18:02:22.188Z,99755.84
2022-09-25T18:05:18.176Z,99781.19
2022-09-25T18:08:08.122Z,99776.72
2022-09-25T18:10:58.541Z,99776.16
2022-09-25T18:13:47.085Z,99785.31
2022-09-25T18:16:35.577Z,99787.16
2022-09-25T18:19:41.323Z,99790.69
2022-09-25T18:22:29.832Z,99783.06
2022-09-25T18:25:19.758Z,99766.63
2022-09-25T18:28:08.634Z,99789.94
2022-09-25T18:30:58.026Z,99785.00
2022-09-25T18:33:47.545Z,99793.47
2022-09-25T18:36:36.324Z,99796.00
2022-09-25T18:39:24.897Z,99805.53
2022-09-25T18:42:14.947Z,99809.25
2022-09-25T18:45:03.721Z,99805.16
2022-09-25T18:47:52.265Z,99807.63
2022-09-25T18:50:41.729Z,99811.50
2022-09-25T18:53:30.279Z,99804.09
2022-09-25T18:56:18.817Z,99811.50
2022-09-25T18:59:09.093Z,99810.09
2022-09-25T19:01:57.608Z,99813.84
2022-09-25T19:04:46.427Z,99814.19
2022-09-25T19:07:35.119Z,99814.78
2022-09-25T19:10:24.395Z,99809.25
2022-09-25T19:13:13.541Z,99814.41
2022-09-25T19:16:04.036Z,99822.63
2022-09-25T19:18:52.674Z,99823.25
2022-09-25T19:21:41.571Z,99820.78
2022-09-25T19:24:30.721Z,99816.19
2022-09-25T19:27:20.146Z,99815.41
2022-09-25T19:30:09.515Z,99827.13
2022-09-25T19:32:59.497Z,99816.56
2022-09-25T19:35:48.082Z,99813.88
2022-09-25T19:38:38.569Z,99812.69
2022-09-25T19:41:28.865Z,99705.72
2022-09-25T19:44:18.334Z,99820.91
2022-09-25T19:47:06.852Z,99677.00
2022-09-25T19:49:56.695Z,99828.03
2022-09-25T19:52:50.180Z,99824.72
2022-09-25T19:55:40.894Z,99827.66
2022-09-25T19:58:30.448Z,99817.56
2022-09-25T20:01:20.966Z,99825.88
2022-09-25T20:04:14.118Z,99825.13
2022-09-25T20:07:07.232Z,99825.88
2022-09-25T20:09:55.694Z,99821.91
2022-09-25T20:12:44.790Z,99827.06
2022-09-25T20:15:33.657Z,99824.84
2022-09-25T20:18:23.065Z,99809.25
2022-09-25T20:21:13.782Z,99796.00
2022-09-25T20:24:05.658Z,99821.22
2022-09-25T20:26:55.488Z,99815.47
2022-09-25T20:29:43.949Z,99809.59
2022-09-25T20:32:32.791Z,99818.63
2022-09-25T20:35:21.245Z,99812.16
2022-09-25T20:38:10.958Z,99808.91
2022-09-25T20:41:01.243Z,99807.63
2022-09-25T20:43:50.521Z,99808.06
2022-09-25T20:46:39.177Z,99818.25
2022-09-25T20:49:27.720Z,99791.88
2022-09-25T20:52:16.233Z,99809.38
2022-09-25T20:55:05.113Z,99811.91
2022-09-25T20:57:54.939Z,99808.19
2022-09-25T21:00:43.416Z,99803.81
2022-09-25T21:03:32.050Z,99808.88
2022-09-25T21:06:22.318Z,99810.88
2022-09-25T21:09:21.101Z,99805.78
2022-09-25T21:12:09.595Z,99811.78
2022-09-25T21:14:59.409Z,99766.53
2022-09-25T21:17:47.928Z,99800.03
2022-09-25T21:20:36.595Z,99804.63
2022-09-25T21:23:25.857Z,99800.41
2022-09-25T21:26:15.933Z,99797.56
2022-09-25T21:29:05.844Z,99797.44
2022-09-25T21:31:56.427Z,99810.22
2022-09-25T21:34:44.941Z,99810.56
2022-09-25T21:37:33.419Z,99810.81
2022-09-25T21:40:21.976Z,99807.53
2022-09-25T21:43:11.095Z,99796.25
2022-09-25T21:46:00.537Z,99747.66
2022-09-25T21:48:51.622Z,99798.63
2022-09-25T21:51:43.748Z,99793.47
2022-09-25T21:54:32.526Z,99785.28
2022-09-25T21:57:21.781Z,99792.50
2022-09-25T22:00:11.422Z,99792.72
2022-09-25T22:03:00.011Z,99790.47
2022-09-25T22:05:49.888Z,99794.44
2022-09-25T22:08:39.953Z,99790.75
2022-09-25T22:11:29.131Z,99764.94
2022-09-25T22:14:18.161Z,99786.09
2022-09-25T22:17:06.647Z,99783.03
2022-09-25T22:19:55.105Z,99790.72
2022-09-25T22:22:44.929Z,99784.97
2022-09-25T22:25:34.996Z,99781.44
2022-09-25T22:28:23.444Z,99778.97
2022-09-25T22:31:14.342Z,99767.03
2022-09-25T22:34:04.531Z,99735.31
2022-09-25T22:36:58.645Z,99778.75
2022-09-25T22:39:49.826Z,99741.19
2022-09-25T22:42:38.301Z,99772.66
2022-09-25T22:45:26.695Z,99774.16
2022-09-25T22:48:15.108Z,99764.28
2022-09-25T22:51:05.695Z,99758.75
2022-09-25T22:53:55.014Z,99764.78
2022-09-25T22:56:45.155Z,99618.16
2022-09-25T22:59:33.776Z,99755.84
2022-09-25T23:02:22.299Z,99757.31
2022-09-25T23:05:10.842Z,99752.00
2022-09-25T23:07:59.363Z,99712.22
2022-09-25T23:11:06.282Z,99759.53
2022-09-25T23:14:00.172Z,99754.16
2022-09-25T23:16:50.692Z,99760.22
2022-09-25T23:19:39.203Z,99750.91
2022-09-25T23:22:27.604Z,99745.41
2022-09-25T23:25:16.130Z,99745.22
2022-09-25T23:28:05.268Z,99744.66
2022-09-25T23:30:55.108Z,99735.34
2022-09-25T23:33:43.975Z,99740.59
2022-09-25T23:36:32.741Z,99734.03
2022-09-25T23:39:21.512Z,99732.75
2022-09-25T23:42:10.009Z,99714.94
2022-09-25T23:44:58.473Z,99732.22
2022-09-25T23:47:48.612Z,99734.50
2022-09-25T23:50:37.019Z,99731.06
2022-09-25T23:53:25.816Z,99732.75
2022-09-25T23:56:17.253Z,99728.81
2022-09-25T23:59:06.015Z,99665.75
